Nearby METAR Reports

 

KBFI - Boeing Field Seattle, WA, USA
Distance from station: SE 4mi, 7km
Updated: Tue, 17-May-2022 10:53pm PDT
Clear
Clear
 Wind from SSE
Wind: SSE 3 mph , 6 km/h
Temperature: 54°F , 12°C
Dew Point: 39°F , 4°C
Humidity: 58%
Barometer: 30.15 inHg , 1021 hPa
Clouds: Clear
Visibility: 10 miles , 16 km
2022/05/18 05:53 KBFI 180553Z 16003KT 10SM CLR 12/04 A3015 RMK AO2 SLP211 T01170039 10156 20117 56015
KSEA - Seattle/Metro, WA, USA
Distance from station: NE 5mi, 8km
Updated: Tue, 17-May-2022 10:53pm PDT
Mostly cloudy
Mostly cloudy
 Wind from SW
Wind: SW 7 mph , 11 km/h
Temperature: 54°F , 12°C
Dew Point: 37°F , 3°C
Humidity: 54%
Barometer: 30.16 inHg , 1021.3 hPa
Clouds: Mostly cloudy
Visibility: 10 miles , 16 km
Cloud details: Few Clouds 6000 ft
Mostly cloudy 13000 ft
Mostly cloudy 25000 ft
2022/05/18 05:53 KSEA 180553Z 23006KT 10SM FEW060 BKN130 BKN250 12/03 A3016 RMK AO2 SLP218 T01170028 10161 20117 56015
 
KTIW - Tacoma, WA, USA
Distance from station: S 30mi, 45km
Updated: Tue, 17-May-2022 10:53pm PDT
Clear
Clear
 Wind from WSW
Wind: WSW 6 mph , 9 km/h
Temperature: 54°F , 12°C
Dew Point: 39°F , 4°C
Humidity: 58%
Barometer: 30.16 inHg , 1021.3 hPa
Clouds: Clear
Visibility: 10 miles , 16 km
2022/05/18 05:53 KTIW 180553Z AUTO 24005KT 10SM CLR 12/04 A3016 RMK AO2 SLP214 T01170044 10156 20117 56015
KCLM - Port Angeles, WA, USA
Distance from station: NW 70mi, 100km
Updated: Tue, 17-May-2022 10:53pm PDT
Partly cloudy
Partly cloudy
 Wind from calm
Wind: Calm
Temperature: 48°F , 9°C
Dew Point: 43°F , 6°C
Humidity: 82%
Barometer: 30.14 inHg , 1020.7 hPa
Clouds: Partly cloudy
Visibility: 10 miles , 16 km
Cloud details: Partly cloudy 12000 ft
2022/05/18 05:53 KCLM 180553Z AUTO 00000KT 10SM SCT120 09/06 A3014 RMK AO2 SLP208 T00890056 10133 20089 58026